Time;durP1;ratioP1;P1;durP2;ratioP2;P2;SDS_P1;SDS_P2;PMS_P1;PMS_P2;Temp;Humidity;BMP_temperature;BMP_pressure;BME280_temperature;BME280_humidity;BME280_pressure;Samples;Min_cycle;Max_cycle;Signal;HPM_P1;HPM_P2
2020/12/19 00:01:33;;;;;;;1.55;1.45;;;8.80;99.90;;;;;;5075456;28;20174;-75
2020/12/19 00:03:59;;;;;;;1.92;0.82;;;8.80;99.90;;;;;;5075273;28;20185;-75
2020/12/19 00:06:25;;;;;;;0.32;0.32;;;8.90;99.90;;;;;;5075294;28;20648;-75
2020/12/19 00:08:51;;;;;;;1.85;1.75;;;8.90;99.90;;;;;;5075331;28;20155;-75
2020/12/19 00:11:16;;;;;;;0.68;0.68;;;8.80;99.90;;;;;;5075273;28;20193;-76
2020/12/19 00:13:42;;;;;;;1.55;1.23;;;8.80;99.90;;;;;;5075155;28;20166;-75
2020/12/19 00:16:08;;;;;;;2.28;1.27;;;8.90;99.90;;;;;;5075137;28;20518;-75
2020/12/19 00:18:34;;;;;;;1.15;1.15;;;9.00;99.90;;;;;;5075076;28;20215;-74
2020/12/19 00:20:59;;;;;;;1.52;1.48;;;9.10;99.90;;;;;;5075144;28;20163;-76
2020/12/19 00:23:25;;;;;;;0.88;0.88;;;9.00;99.90;;;;;;5074977;28;20170;-76
2020/12/19 00:25:51;;;;;;;1.90;1.33;;;9.10;99.90;;;;;;5075375;28;20281;-75
2020/12/19 00:28:16;;;;;;;1.15;0.98;;;9.00;99.90;;;;;;5074872;28;20236;-74
2020/12/19 00:30:42;;;;;;;1.58;1.48;;;8.90;99.90;;;;;;5074988;28;20513;-75
2020/12/19 00:33:07;;;;;;;0.63;0.63;;;9.10;99.90;;;;;;5074836;28;20163;-75
2020/12/19 00:35:33;;;;;;;1.98;0.77;;;9.10;99.90;;;;;;5074835;28;20197;-75
2020/12/19 00:37:58;;;;;;;1.30;1.20;;;9.00;99.90;;;;;;5074702;28;20634;-75
2020/12/19 00:40:24;;;;;;;0.85;0.85;;;9.10;99.90;;;;;;5074762;28;20241;-75
2020/12/19 00:42:50;;;;;;;1.15;1.08;;;8.90;99.90;;;;;;5074589;28;20173;-75
2020/12/19 00:45:15;;;;;;;0.73;0.73;;;8.90;99.90;;;;;;5074560;28;20183;-75
2020/12/19 00:47:41;;;;;;;0.77;0.77;;;8.90;99.90;;;;;;5056606;28;20293;-75
2020/12/19 00:50:08;;;;;;;0.60;0.60;;;8.90;99.90;;;;;;5074429;28;20625;-75
2020/12/19 00:52:34;;;;;;;0.70;0.70;;;9.00;99.90;;;;;;5074655;28;20159;-75
2020/12/19 00:55:00;;;;;;;2.95;1.70;;;9.10;99.90;;;;;;5074226;28;20214;-75
2020/12/19 00:57:32;;;;;;;0.47;0.47;;;9.20;99.90;;;;;;5074392;28;20181;-75
2020/12/19 00:59:58;;;;;;;1.95;0.95;;;9.20;99.90;;;;;;5074037;28;20739;-74
2020/12/19 01:02:24;;;;;;;0.77;0.75;;;9.10;99.90;;;;;;5074273;28;20556;-75
2020/12/19 01:04:50;;;;;;;1.45;1.35;;;9.20;99.90;;;;;;5074131;28;20178;-75
2020/12/19 01:07:16;;;;;;;0.65;0.65;;;9.10;99.90;;;;;;5074071;28;20220;-76
2020/12/19 01:09:42;;;;;;;0.88;0.88;;;9.10;99.90;;;;;;5074131;28;20178;-76
2020/12/19 01:12:07;;;;;;;0.68;0.68;;;9.00;99.90;;;;;;5074071;28;20162;-75
2020/12/19 01:14:33;;;;;;;1.15;0.93;;;9.00;99.90;;;;;;5073997;28;20581;-75
2020/12/19 01:17:02;;;;;;;0.40;0.40;;;9.00;99.90;;;;;;5073995;28;20241;-75
2020/12/19 01:19:28;;;;;;;0.57;0.57;;;9.00;99.90;;;;;;5073894;28;20151;-75
2020/12/19 01:21:53;;;;;;;3.63;1.63;;;9.00;99.90;;;;;;5073954;28;20250;-75
2020/12/19 01:24:19;;;;;;;5.82;1.15;;;9.20;99.90;;;;;;5073863;28;20182;-75
2020/12/19 01:26:46;;;;;;;0.35;0.35;;;9.10;99.90;;;;;;5073704;28;20217;-75
2020/12/19 01:29:12;;;;;;;1.08;1.08;;;9.10;99.90;;;;;;5073821;28;20163;-74
2020/12/19 01:31:37;;;;;;;3.92;0.73;;;9.00;99.90;;;;;;5073639;28;20170;-75
2020/12/19 01:34:03;;;;;;;2.83;1.90;;;9.00;99.90;;;;;;5073631;28;20182;-74
2020/12/19 01:36:29;;;;;;;0.52;0.52;;;8.90;99.90;;;;;;5073561;28;20509;-75
2020/12/19 01:38:54;;;;;;;0.85;0.85;;;8.90;99.90;;;;;;5073620;28;20155;-75
2020/12/19 01:41:21;;;;;;;0.82;0.80;;;9.10;99.90;;;;;;5073987;28;20180;-75
2020/12/19 01:43:48;;;;;;;0.85;0.85;;;9.00;99.90;;;;;;5073357;28;20201;-75
2020/12/19 01:46:53;;;;;;;0.63;0.63;;;9.00;99.90;;;;;;5073459;28;20537;-75
2020/12/19 01:49:19;;;;;;;0.40;0.40;;;9.20;99.90;;;;;;5069811;28;20276;-75
2020/12/19 01:51:47;;;;;;;0.50;0.50;;;9.10;99.90;;;;;;5073418;28;20636;-75
2020/12/19 01:54:13;;;;;;;1.60;1.52;;;9.00;99.90;;;;;;5073219;28;20515;-74
2020/12/19 01:56:39;;;;;;;4.38;1.30;;;9.00;99.90;;;;;;5055410;28;20704;-74
2020/12/19 01:59:05;;;;;;;2.05;1.15;;;9.00;99.90;;;;;;5055383;28;20273;-74
2020/12/19 02:01:31;;;;;;;0.68;0.68;;;8.90;99.90;;;;;;5073428;28;20163;-74
2020/12/19 02:03:57;;;;;;;0.20;0.20;;;8.90;99.90;;;;;;5073190;28;20190;-74
2020/12/19 02:06:25;;;;;;;0.93;0.93;;;9.00;99.90;;;;;;5073066;28;20757;-74
2020/12/19 02:08:52;;;;;;;1.73;1.60;;;9.00;99.90;;;;;;5073227;28;20154;-75
2020/12/19 02:11:21;;;;;;;1.10;0.75;;;9.00;99.90;;;;;;5072783;28;20499;-75
2020/12/19 02:13:47;;;;;;;0.47;0.47;;;9.10;99.90;;;;;;5072771;28;20550;-74
2020/12/19 02:16:20;;;;;;;0.63;0.63;;;9.10;99.90;;;;;;5072969;28;20161;-74
2020/12/19 02:18:45;;;;;;;2.13;1.65;;;8.90;99.90;;;;;;5073085;28;20162;-74
2020/12/19 02:21:11;;;;;;;2.03;1.60;;;8.90;99.90;;;;;;5073086;28;20242;-75
2020/12/19 02:23:37;;;;;;;0.55;0.55;;;9.00;99.90;;;;;;5072804;28;20185;-74
2020/12/19 02:26:03;;;;;;;1.02;1.00;;;9.10;99.90;;;;;;5072998;28;20158;-74
2020/12/19 02:28:28;;;;;;;0.60;0.60;;;9.00;99.90;;;;;;5072892;28;20190;-75
2020/12/19 02:30:54;;;;;;;0.70;0.70;;;9.10;99.90;;;;;;5073017;28;20237;-74
2020/12/19 02:33:19;;;;;;;0.93;0.88;;;9.20;99.90;;;;;;5072921;28;20155;-74
2020/12/19 02:35:45;;;;;;;1.27;0.98;;;9.10;99.90;;;;;;5072857;28;20187;-74
2020/12/19 02:38:10;;;;;;;1.42;1.33;;;9.00;99.90;;;;;;5072808;28;20174;-74
2020/12/19 02:40:36;;;;;;;0.65;0.65;;;9.10;99.90;;;;;;5072855;28;20171;-74
2020/12/19 02:43:02;;;;;;;0.63;0.63;;;9.10;99.90;;;;;;5072877;28;20147;-74
2020/12/19 02:45:28;;;;;;;0.80;0.80;;;9.10;99.90;;;;;;5072726;28;20519;-74
2020/12/19 02:47:53;;;;;;;1.30;0.60;;;9.10;99.90;;;;;;5054741;28;20206;-74
2020/12/19 02:50:19;;;;;;;0.38;0.38;;;9.10;99.90;;;;;;5055008;28;20175;-74
2020/12/19 02:52:44;;;;;;;0.40;0.32;;;9.10;99.90;;;;;;5072821;28;20157;-74
2020/12/19 02:55:10;;;;;;;1.15;0.47;;;9.20;99.90;;;;;;5054446;28;20258;-75
2020/12/19 02:57:35;;;;;;;0.52;0.50;;;9.10;99.90;;;;;;5072734;28;20198;-74
2020/12/19 03:00:02;;;;;;;0.32;0.32;;;9.00;99.90;;;;;;5072615;28;20163;-74
2020/12/19 03:02:28;;;;;;;4.95;0.90;;;9.00;99.90;;;;;;5054685;28;20197;-74
2020/12/19 03:04:53;;;;;;;4.38;0.43;;;9.00;99.90;;;;;;5072841;28;20696;-75
2020/12/19 03:07:19;;;;;;;0.57;0.57;;;9.10;99.90;;;;;;5054474;28;20233;-74
2020/12/19 03:09:44;;;;;;;0.57;0.57;;;9.00;99.90;;;;;;5072574;28;20238;-75
2020/12/19 03:12:10;;;;;;;0.47;0.47;;;8.90;99.90;;;;;;5072520;28;20233;-74
2020/12/19 03:14:35;;;;;;;1.98;1.85;;;8.90;99.90;;;;;;5072415;28;20229;-74
2020/12/19 03:17:01;;;;;;;0.77;0.77;;;9.00;99.90;;;;;;5072552;28;20198;-74
2020/12/19 03:19:26;;;;;;;0.73;0.73;;;9.20;99.90;;;;;;5072511;28;20212;-74
2020/12/19 03:21:52;;;;;;;0.43;0.43;;;9.10;99.90;;;;;;5072473;28;20185;-75
2020/12/19 03:24:18;;;;;;;0.40;0.40;;;9.10;99.90;;;;;;5057099;28;20305;-74
2020/12/19 03:26:43;;;;;;;0.65;0.65;;;9.10;99.90;;;;;;5076051;28;20290;-74
2020/12/19 03:29:09;;;;;;;0.88;0.88;;;9.10;99.90;;;;;;5076153;28;20194;-74
2020/12/19 03:31:34;;;;;;;1.13;1.13;;;9.20;99.90;;;;;;5075978;28;20166;-75
2020/12/19 03:34:00;;;;;;;1.08;1.05;;;9.20;99.90;;;;;;5075986;28;20232;-74
2020/12/19 03:36:25;;;;;;;2.17;1.42;;;9.20;99.90;;;;;;5075923;28;20159;-74
2020/12/19 03:38:51;;;;;;;0.70;0.70;;;9.20;99.90;;;;;;5075743;28;20167;-75
2020/12/19 03:41:17;;;;;;;1.13;0.68;;;9.20;99.90;;;;;;5057887;28;20253;-75
2020/12/19 03:43:42;;;;;;;0.32;0.32;;;9.00;99.90;;;;;;5075694;28;20194;-74
2020/12/19 03:46:08;;;;;;;0.90;0.90;;;9.00;99.90;;;;;;5075690;28;20151;-74
2020/12/19 03:48:34;;;;;;;0.35;0.35;;;9.00;99.90;;;;;;5075719;28;20257;-74
2020/12/19 03:50:59;;;;;;;0.52;0.52;;;9.00;99.90;;;;;;5057612;28;20709;-75
2020/12/19 03:53:25;;;;;;;0.93;0.93;;;8.90;99.90;;;;;;5075654;28;20518;-74
2020/12/19 03:55:51;;;;;;;1.73;1.63;;;9.00;99.90;;;;;;5075403;28;20258;-74
2020/12/19 03:58:16;;;;;;;0.82;0.82;;;9.00;99.90;;;;;;5075574;28;20269;-74
2020/12/19 04:00:42;;;;;;;0.32;0.32;;;9.00;99.90;;;;;;5075419;28;20246;-74
2020/12/19 04:03:07;;;;;;;0.28;0.28;;;9.00;99.90;;;;;;5075389;28;20155;-74
2020/12/19 04:05:33;;;;;;;0.25;0.25;;;9.00;99.90;;;;;;5075452;28;20186;-74
2020/12/19 04:07:58;;;;;;;1.10;1.02;;;9.00;99.90;;;;;;5075328;28;20202;-74
2020/12/19 04:10:24;;;;;;;2.10;1.90;;;9.00;99.90;;;;;;5075260;28;20163;-74
2020/12/19 04:12:49;;;;;;;1.13;1.13;;;9.00;99.90;;;;;;5075361;28;20626;-74
2020/12/19 04:15:22;;;;;;;0.60;0.60;;;9.00;99.90;;;;;;5074943;28;20228;-74
2020/12/19 04:17:49;;;;;;;0.10;0.10;;;9.10;99.90;;;;;;5075282;28;20258;-74
2020/12/19 04:20:14;;;;;;;0.80;0.65;;;9.10;99.90;;;;;;5075085;28;20572;-74
2020/12/19 04:22:40;;;;;;;0.60;0.60;;;9.10;99.90;;;;;;5075106;28;20250;-74
2020/12/19 04:25:06;;;;;;;2.78;1.65;;;9.10;99.90;;;;;;5075344;28;20198;-74
2020/12/19 04:27:32;;;;;;;0.73;0.73;;;9.10;99.90;;;;;;5074812;28;20206;-74
2020/12/19 04:29:57;;;;;;;2.90;1.48;;;9.10;99.90;;;;;;5075342;28;20163;-74
2020/12/19 04:32:23;;;;;;;1.35;1.27;;;9.00;99.90;;;;;;5056986;28;20167;-74
2020/12/19 04:34:48;;;;;;;0.88;0.88;;;8.90;99.90;;;;;;5056118;28;20199;-74
2020/12/19 04:37:14;;;;;;;0.98;0.98;;;8.90;99.90;;;;;;5074825;28;20173;-74
2020/12/19 04:39:39;;;;;;;0.45;0.45;;;8.90;99.90;;;;;;5074625;28;20522;-75
2020/12/19 04:42:05;;;;;;;1.02;0.93;;;9.00;99.90;;;;;;5074735;28;20162;-74
2020/12/19 04:44:31;;;;;;;1.23;1.13;;;9.10;99.90;;;;;;5074522;28;20247;-74
2020/12/19 04:46:56;;;;;;;2.03;1.92;;;9.20;99.90;;;;;;5074504;28;20236;-74
2020/12/19 04:49:23;;;;;;;1.30;1.13;;;9.20;99.90;;;;;;5074620;28;20159;-74
2020/12/19 04:51:49;;;;;;;0.30;0.30;;;9.30;99.90;;;;;;5074276;28;20167;-75
2020/12/19 04:54:14;;;;;;;0.55;0.55;;;9.20;99.90;;;;;;5056174;28;20646;-74
2020/12/19 04:56:40;;;;;;;1.40;1.17;;;9.30;99.90;;;;;;5074268;28;20206;-75
2020/12/19 04:59:06;;;;;;;1.25;1.20;;;9.30;99.90;;;;;;5074302;28;20151;-74
2020/12/19 05:01:32;;;;;;;1.08;1.08;;;9.30;99.90;;;;;;5074276;28;20170;-74
2020/12/19 05:03:57;;;;;;;1.35;1.30;;;9.30;99.90;;;;;;5074065;28;20182;-74
2020/12/19 05:06:28;;;;;;;2.58;2.42;;;9.30;99.90;;;;;;5074157;28;20190;-74
2020/12/19 05:08:54;;;;;;;1.77;1.67;;;9.30;99.90;;;;;;5056269;28;20171;-78
2020/12/19 05:11:21;;;;;;;0.90;0.90;;;9.30;99.90;;;;;;5073865;28;20170;-75
2020/12/19 05:13:47;;;;;;;4.25;1.45;;;9.30;99.90;;;;;;5074024;28;20182;-76
2020/12/19 05:16:15;;;;;;;2.72;0.77;;;9.40;99.90;;;;;;5073946;28;20220;-75
2020/12/19 05:18:41;;;;;;;0.88;0.88;;;9.40;99.90;;;;;;5073870;28;20249;-77
2020/12/19 05:21:08;;;;;;;0.50;0.50;;;9.50;99.90;;;;;;5073997;28;20173;-77
2020/12/19 05:23:34;;;;;;;1.95;0.77;;;9.50;99.90;;;;;;5073775;28;20159;-75
2020/12/19 05:26:03;;;;;;;2.35;1.25;;;9.50;99.90;;;;;;5074258;28;20182;-77
2020/12/19 05:28:28;;;;;;;1.20;1.20;;;9.50;99.90;;;;;;5073720;28;20170;-75
2020/12/19 05:30:57;;;;;;;1.05;0.80;;;9.50;99.90;;;;;;5073768;28;20174;-77
2020/12/19 05:33:23;;;;;;;3.78;2.25;;;9.40;99.90;;;;;;5073719;28;20162;-74
2020/12/19 05:35:48;;;;;;;0.52;0.52;;;9.50;99.90;;;;;;5073575;28;20775;-75
2020/12/19 05:38:14;;;;;;;2.00;1.85;;;9.50;99.90;;;;;;5073675;28;20167;-76
2020/12/19 05:40:40;;;;;;;0.57;0.57;;;9.50;99.90;;;;;;5073627;28;20245;-76
2020/12/19 05:43:05;;;;;;;5.97;2.08;;;9.50;99.90;;;;;;5073534;28;20165;-77
2020/12/19 05:45:32;;;;;;;1.98;1.88;;;9.60;99.90;;;;;;5073582;28;20649;-76
2020/12/19 05:47:58;;;;;;;4.53;1.92;;;9.60;99.90;;;;;;5072525;28;20202;-77
2020/12/19 05:50:23;;;;;;;1.50;1.40;;;9.50;99.90;;;;;;5073397;28;20249;-76
2020/12/19 05:52:49;;;;;;;0.70;0.70;;;9.60;99.90;;;;;;5073317;28;20633;-77
2020/12/19 05:55:17;;;;;;;1.90;1.30;;;9.60;99.90;;;;;;5073282;28;20272;-77
2020/12/19 05:57:43;;;;;;;1.17;1.08;;;9.60;99.90;;;;;;5055152;28;20571;-75
2020/12/19 06:00:12;;;;;;;1.00;1.00;;;9.60;99.90;;;;;;5073154;28;20159;-74
2020/12/19 06:02:39;;;;;;;1.60;1.50;;;9.50;99.90;;;;;;5055311;28;20699;-76
2020/12/19 06:05:12;;;;;;;3.65;2.30;;;9.50;99.90;;;;;;5073083;28;20724;-77
2020/12/19 06:07:43;;;;;;;1.08;1.08;;;9.60;99.90;;;;;;5073106;28;20210;-76
2020/12/19 06:10:11;;;;;;;0.63;0.63;;;9.60;99.90;;;;;;5073110;28;20167;-74
2020/12/19 06:13:02;;;;;;;3.13;1.92;;;9.70;99.90;;;;;;5073129;28;20257;-76
2020/12/19 06:15:54;;;;;;;1.02;0.98;;;9.80;99.90;;;;;;5073229;28;20203;-75
2020/12/19 06:18:55;;;;;;;0.60;0.60;;;9.80;99.90;;;;;;5072982;28;20159;-77
2020/12/19 06:21:21;;;;;;;2.28;1.35;;;9.90;99.90;;;;;;5073029;28;20162;-75
2020/12/19 06:23:47;;;;;;;4.07;1.27;;;9.90;99.90;;;;;;5073004;28;20641;-76
2020/12/19 06:26:13;;;;;;;2.70;1.38;;;9.90;99.90;;;;;;5072897;28;20162;-74
2020/12/19 06:28:41;;;;;;;13.23;0.90;;;9.80;99.90;;;;;;5072821;28;20658;-77
2020/12/19 06:31:08;;;;;;;1.85;1.27;;;9.90;99.90;;;;;;5073046;28;20177;-74
2020/12/19 06:33:35;;;;;;;2.80;2.53;;;9.90;99.90;;;;;;5072534;28;20177;-75
2020/12/19 06:36:16;;;;;;;0.98;0.98;;;9.90;99.90;;;;;;5072876;28;20162;-76
2020/12/19 06:38:46;;;;;;;1.67;1.52;;;9.90;99.90;;;;;;5072662;28;20221;-77
2020/12/19 06:41:50;;;;;;;1.25;1.25;;;9.80;99.90;;;;;;5072793;28;20162;-75
2020/12/19 06:44:32;;;;;;;2.03;1.92;;;9.80;99.90;;;;;;5072802;28;20550;-75
2020/12/19 06:47:00;;;;;;;1.35;1.17;;;9.90;99.90;;;;;;5072603;28;20206;-75
2020/12/19 06:49:28;;;;;;;1.23;1.23;;;9.80;99.90;;;;;;5072801;28;20178;-76
2020/12/19 06:52:06;;;;;;;1.45;1.45;;;9.90;99.90;;;;;;5072615;28;20170;-75
2020/12/19 06:54:35;;;;;;;3.45;2.10;;;10.00;99.90;;;;;;5072559;28;20265;-76
2020/12/19 06:57:02;;;;;;;3.88;1.73;;;10.00;99.90;;;;;;5072673;28;20162;-75
2020/12/19 06:59:29;;;;;;;1.98;0.50;;;10.00;99.90;;;;;;5075651;28;20526;-75
2020/12/19 07:02:15;;;;;;;0.90;0.90;;;9.90;99.90;;;;;;5058572;28;20163;-75
2020/12/19 07:04:41;;;;;;;1.13;1.13;;;9.80;99.90;;;;;;5076379;28;20275;-77
2020/12/19 07:07:09;;;;;;;1.58;1.00;;;9.80;99.90;;;;;;5076299;28;20228;-77
2020/12/19 07:09:35;;;;;;;1.98;1.13;;;9.80;99.90;;;;;;5076588;28;20154;-77
2020/12/19 07:12:01;;;;;;;15.13;1.00;;;9.90;99.90;;;;;;5076329;28;20513;-76
2020/12/19 07:14:39;;;;;;;1.77;1.38;;;10.00;99.90;;;;;;5076272;28;20191;-77
2020/12/19 07:17:18;;;;;;;4.00;1.95;;;10.10;99.90;;;;;;5076282;28;20545;-76
2020/12/19 07:19:46;;;;;;;3.17;1.60;;;10.10;99.90;;;;;;5076190;28;20159;-78
2020/12/19 07:22:12;;;;;;;1.05;0.95;;;10.10;99.90;;;;;;5058276;28;20170;-77
2020/12/19 07:24:38;;;;;;;0.80;0.80;;;10.10;99.90;;;;;;5075909;28;20198;-74
2020/12/19 07:27:04;;;;;;;3.90;0.90;;;10.10;99.90;;;;;;5057919;28;20683;-77
2020/12/19 07:29:30;;;;;;;1.90;0.98;;;10.20;99.90;;;;;;5058174;28;20198;-78
2020/12/19 07:32:00;;;;;;;1.10;1.05;;;10.10;99.90;;;;;;5058080;28;20648;-78
2020/12/19 07:34:27;;;;;;;0.85;0.85;;;10.10;99.90;;;;;;5057941;28;20182;-78
2020/12/19 07:36:54;;;;;;;17.80;2.78;;;10.10;99.90;;;;;;5057837;28;20175;-77
2020/12/19 07:39:21;;;;;;;0.75;0.70;;;10.00;99.90;;;;;;5075756;28;20242;-77
2020/12/19 07:42:06;;;;;;;0.85;0.85;;;10.10;99.90;;;;;;5075770;28;20212;-77
2020/12/19 07:44:34;;;;;;;1.00;0.68;;;10.00;99.90;;;;;;5075804;28;20197;-77
2020/12/19 07:47:02;;;;;;;0.80;0.77;;;9.90;99.90;;;;;;5075620;28;20206;-77
2020/12/19 07:49:33;;;;;;;3.53;1.15;;;10.00;99.90;;;;;;5075692;28;20163;-76
2020/12/19 07:52:21;;;;;;;0.40;0.40;;;9.90;99.90;;;;;;5075411;28;20684;-76
2020/12/19 07:55:04;;;;;;;1.60;1.25;;;10.10;99.90;;;;;;5075240;28;20634;-75
2020/12/19 07:57:32;;;;;;;0.73;0.73;;;10.20;99.90;;;;;;5057603;28;20190;-78
2020/12/19 07:59:59;;;;;;;5.30;1.02;;;10.20;99.90;;;;;;5075268;28;20174;-77
2020/12/19 08:02:25;;;;;;;1.20;1.13;;;10.20;99.90;;;;;;5075061;28;20182;-77
2020/12/19 08:04:52;;;;;;;4.47;0.95;;;10.30;99.90;;;;;;5075329;28;20183;-77
2020/12/19 08:07:19;;;;;;;2.53;0.85;;;10.30;99.90;;;;;;5074919;28;20210;-76
2020/12/19 08:09:45;;;;;;;0.85;0.85;;;10.30;99.90;;;;;;5074074;28;20652;-77
2020/12/19 08:12:11;;;;;;;0.70;0.70;;;10.40;99.90;;;;;;5075168;28;20195;-77
2020/12/19 08:14:39;;;;;;;1.40;1.15;;;10.50;99.90;;;;;;5075180;28;20179;-77
2020/12/19 08:17:13;;;;;;;2.35;1.15;;;10.60;99.90;;;;;;5075334;28;20166;-82
2020/12/19 08:19:53;;;;;;;0.30;0.30;;;10.70;99.90;;;;;;5074881;28;20532;-75
2020/12/19 08:22:20;;;;;;;0.82;0.82;;;10.70;99.90;;;;;;5074971;28;20617;-81
2020/12/19 08:24:47;;;;;;;2.60;0.82;;;10.60;99.90;;;;;;5056523;28;20283;-74
2020/12/19 08:27:25;;;;;;;0.80;0.80;;;10.60;99.90;;;;;;5073070;28;20299;-75
2020/12/19 08:30:14;;;;;;;1.20;1.15;;;10.60;99.90;;;;;;5074240;28;20150;-73
2020/12/19 08:32:45;;;;;;;0.30;0.30;;;10.70;99.90;;;;;;5074969;28;20154;-80
2020/12/19 08:35:16;;;;;;;0.35;0.35;;;10.70;99.90;;;;;;5056861;28;20191;-75
2020/12/19 08:37:42;;;;;;;4.13;1.10;;;10.70;99.90;;;;;;5074661;28;20158;-73
2020/12/19 08:40:17;;;;;;;0.52;0.52;;;10.80;99.90;;;;;;5074324;28;20180;-74
2020/12/19 08:42:44;;;;;;;0.57;0.57;;;11.00;99.90;;;;;;5074573;28;20241;-73
2020/12/19 08:45:20;;;;;;;3.85;0.63;;;11.10;99.90;;;;;;5074450;28;20193;-73
2020/12/19 08:47:48;;;;;;;1.25;1.15;;;11.10;99.90;;;;;;5074234;28;20202;-74
2020/12/19 08:50:14;;;;;;;0.52;0.52;;;11.20;99.90;;;;;;5056436;28;20175;-75
2020/12/19 08:52:40;;;;;;;2.17;1.55;;;11.10;99.90;;;;;;5074495;28;20177;-74
2020/12/19 08:55:05;;;;;;;1.17;0.60;;;11.20;99.90;;;;;;5075022;28;20248;-74
2020/12/19 08:57:31;;;;;;;0.73;0.73;;;11.20;99.90;;;;;;5082002;28;20165;-74
2020/12/19 09:00:11;;;;;;;0.68;0.68;;;11.20;99.90;;;;;;5079691;28;20230;-75
2020/12/19 09:02:38;;;;;;;0.85;0.85;;;11.20;99.90;;;;;;5085169;28;20195;-74
2020/12/19 09:05:05;;;;;;;1.08;0.98;;;11.20;99.90;;;;;;5086904;28;20189;-74
2020/12/19 09:07:31;;;;;;;9.75;1.25;;;11.30;99.90;;;;;;5089216;28;20203;-74
2020/12/19 09:09:56;;;;;;;0.50;0.50;;;11.30;99.90;;;;;;5093678;28;20303;-73
2020/12/19 09:12:23;;;;;;;2.40;0.50;;;11.30;99.90;;;;;;5090752;28;20178;-75
2020/12/19 09:14:49;;;;;;;5.68;1.77;;;11.40;99.90;;;;;;5093933;28;20177;-73
2020/12/19 09:17:30;;;;;;;0.55;0.55;;;11.30;99.90;;;;;;5094083;28;20211;-74
2020/12/19 09:20:14;;;;;;;13.05;1.13;;;11.30;99.90;;;;;;5094229;28;20632;-73
2020/12/19 09:22:40;;;;;;;0.32;0.32;;;11.30;99.90;;;;;;5093721;28;20218;-80
2020/12/19 09:25:05;;;;;;;0.32;0.32;;;11.40;99.90;;;;;;5094107;28;20574;-82
2020/12/19 09:27:31;;;;;;;0.45;0.45;;;11.50;99.90;;;;;;5058517;28;20217;-73
2020/12/19 09:29:56;;;;;;;0.52;0.52;;;11.50;99.90;;;;;;5093828;28;20162;-75
2020/12/19 09:32:22;;;;;;;1.25;0.75;;;11.70;99.90;;;;;;5093734;28;20159;-74
2020/12/19 09:34:47;;;;;;;0.82;0.82;;;11.60;99.90;;;;;;5093563;28;20181;-73
2020/12/19 09:37:13;;;;;;;0.40;0.40;;;11.80;99.90;;;;;;5075326;28;20256;-73
2020/12/19 09:39:39;;;;;;;0.50;0.50;;;11.80;99.90;;;;;;5093431;28;20196;-73
2020/12/19 09:42:04;;;;;;;2.15;0.60;;;11.90;99.90;;;;;;5093631;28;20170;-75
2020/12/19 09:44:30;;;;;;;0.70;0.70;;;11.90;99.90;;;;;;5093469;28;20178;-75
2020/12/19 09:46:55;;;;;;;0.38;0.38;;;11.90;99.90;;;;;;5093124;28;20545;-76
2020/12/19 09:49:21;;;;;;;2.17;0.95;;;11.80;99.90;;;;;;5093514;28;20240;-74
2020/12/19 09:51:46;;;;;;;0.30;0.30;;;11.90;99.90;;;;;;5093403;28;20244;-73
2020/12/19 09:54:12;;;;;;;0.90;0.90;;;12.00;99.90;;;;;;5093167;28;20194;-74
2020/12/19 09:56:38;;;;;;;0.40;0.40;;;12.10;99.90;;;;;;5093471;28;20189;-74
2020/12/19 09:59:04;;;;;;;0.52;0.52;;;12.10;99.90;;;;;;5092970;28;20166;-74
2020/12/19 10:01:30;;;;;;;0.30;0.30;;;12.20;99.90;;;;;;5093199;28;20166;-74
2020/12/19 10:03:56;;;;;;;0.20;0.20;;;12.30;99.90;;;;;;5092824;28;20204;-73
2020/12/19 10:06:21;;;;;;;0.43;0.43;;;12.30;99.90;;;;;;5093184;28;20154;-76
2020/12/19 10:08:47;;;;;;;0.45;0.40;;;12.20;99.90;;;;;;5093031;28;20537;-73
2020/12/19 10:11:12;;;;;;;0.52;0.52;;;12.20;99.90;;;;;;5093111;28;20504;-76
2020/12/19 10:13:38;;;;;;;0.70;0.70;;;12.20;99.90;;;;;;5092969;28;20211;-73
2020/12/19 10:16:04;;;;;;;0.40;0.40;;;12.30;99.90;;;;;;5093373;28;20165;-73
2020/12/19 10:18:30;;;;;;;0.93;0.93;;;12.30;99.90;;;;;;5092990;28;20165;-74
2020/12/19 10:20:55;;;;;;;0.77;0.70;;;12.40;99.90;;;;;;5093064;28;20173;-75
2020/12/19 10:23:21;;;;;;;0.43;0.43;;;12.50;99.90;;;;;;5092870;28;20157;-73
2020/12/19 10:25:46;;;;;;;0.70;0.70;;;12.50;99.90;;;;;;5093358;28;20272;-75
2020/12/19 10:28:12;;;;;;;0.43;0.43;;;12.50;99.90;;;;;;5064095;28;20217;-76
2020/12/19 10:30:37;;;;;;;0.20;0.20;;;12.40;99.90;;;;;;5072822;28;20645;-76
2020/12/19 10:33:03;;;;;;;1.58;0.50;;;12.60;99.90;;;;;;5074844;28;20577;-76
2020/12/19 10:35:29;;;;;;;1.02;0.93;;;12.70;99.90;;;;;;5079320;28;20553;-75
2020/12/19 10:37:54;;;;;;;1.25;0.90;;;12.70;99.90;;;;;;5079439;28;20212;-76
2020/12/19 10:40:20;;;;;;;0.47;0.47;;;12.80;99.90;;;;;;5079314;28;20641;-74
2020/12/19 10:42:46;;;;;;;0.35;0.35;;;12.60;99.90;;;;;;5079598;28;20488;-83
2020/12/19 10:45:11;;;;;;;0.77;0.30;;;12.70;99.90;;;;;;5061423;28;20301;-77
2020/12/19 10:47:37;;;;;;;0.30;0.30;;;12.70;99.90;;;;;;5079269;28;20216;-76
2020/12/19 10:50:03;;;;;;;0.57;0.35;;;12.80;99.90;;;;;;5079030;28;20177;-76
2020/12/19 10:52:29;;;;;;;0.30;0.30;;;12.70;99.90;;;;;;5079255;28;20182;-77
2020/12/19 10:54:54;;;;;;;0.80;0.80;;;12.70;99.90;;;;;;5078701;28;20260;-76
2020/12/19 10:57:20;;;;;;;0.25;0.25;;;12.70;99.90;;;;;;5061101;28;20166;-76
2020/12/19 10:59:46;;;;;;;1.02;1.02;;;12.80;99.90;;;;;;5079109;28;20609;-77
2020/12/19 11:02:11;;;;;;;2.47;0.70;;;12.70;99.90;;;;;;5079043;28;20170;-76
2020/12/19 11:04:37;;;;;;;0.25;0.25;;;12.60;99.90;;;;;;5079074;28;20226;-76
2020/12/19 11:07:02;;;;;;;2.00;0.65;;;12.60;99.90;;;;;;5078902;28;20226;-76
2020/12/19 11:09:28;;;;;;;0.50;0.50;;;12.40;99.90;;;;;;5078748;28;20241;-76
2020/12/19 11:11:55;;;;;;;0.60;0.60;;;12.40;99.90;;;;;;5079032;28;20301;-78
2020/12/19 11:14:22;;;;;;;0.30;0.30;;;12.20;99.90;;;;;;5079036;28;20185;-77
2020/12/19 11:16:48;;;;;;;0.35;0.35;;;12.20;99.90;;;;;;5078898;28;20296;-76
2020/12/19 11:19:13;;;;;;;0.43;0.38;;;12.10;99.90;;;;;;5060879;28;20189;-77
2020/12/19 11:21:46;;;;;;;0.30;0.30;;;12.10;99.90;;;;;;5078859;28;20174;-77
2020/12/19 11:24:13;;;;;;;0.30;0.30;;;12.10;99.90;;;;;;5078735;28;20235;-76
2020/12/19 11:26:40;;;;;;;3.03;1.33;;;12.00;99.90;;;;;;5060852;28;20206;-75
2020/12/19 11:29:07;;;;;;;0.60;0.60;;;12.00;99.90;;;;;;5078978;28;20204;-76
2020/12/19 11:31:33;;;;;;;3.33;1.17;;;12.00;99.90;;;;;;5078456;28;20228;-76
2020/12/19 11:33:58;;;;;;;0.22;0.22;;;11.90;99.90;;;;;;5078896;28;20645;-76
2020/12/19 11:36:24;;;;;;;0.70;0.70;;;11.80;99.90;;;;;;5078626;28;20216;-76
2020/12/19 11:38:50;;;;;;;0.20;0.20;;;11.90;99.90;;;;;;5078616;28;20206;-77
2020/12/19 11:41:25;;;;;;;0.88;0.88;;;11.70;99.90;;;;;;5078607;28;20166;-76
2020/12/19 11:43:51;;;;;;;0.77;0.77;;;11.80;99.90;;;;;;5060731;28;20198;-77
2020/12/19 11:46:17;;;;;;;0.95;0.88;;;11.80;99.90;;;;;;5078423;28;20171;-73
2020/12/19 11:48:43;;;;;;;0.28;0.28;;;11.60;99.90;;;;;;5075140;28;20257;-75
2020/12/19 11:51:09;;;;;;;0.88;0.43;;;11.40;99.90;;;;;;5075435;28;20476;-74
2020/12/19 11:53:35;;;;;;;0.20;0.20;;;11.50;99.90;;;;;;5075327;28;20167;-76
2020/12/19 11:56:04;;;;;;;0.80;0.80;;;11.50;99.90;;;;;;5075122;28;20224;-74
2020/12/19 11:58:31;;;;;;;1.63;0.80;;;11.40;99.90;;;;;;5075177;28;20163;-75
2020/12/19 12:00:56;;;;;;;0.30;0.30;;;11.30;99.90;;;;;;5075322;28;20189;-76
2020/12/19 12:03:22;;;;;;;2.17;0.75;;;11.40;99.90;;;;;;5075126;28;20599;-75
2020/12/19 12:05:47;;;;;;;1.15;1.10;;;11.30;99.90;;;;;;5075049;28;20194;-75
2020/12/19 12:08:13;;;;;;;0.20;0.20;;;11.40;99.90;;;;;;5074925;28;20688;-75
2020/12/19 12:10:39;;;;;;;0.55;0.55;;;11.40;99.90;;;;;;5074709;28;20162;-75
2020/12/19 12:13:04;;;;;;;0.20;0.20;;;11.50;99.90;;;;;;5074928;28;20682;-75
2020/12/19 12:15:30;;;;;;;0.30;0.30;;;11.60;99.90;;;;;;5074932;28;20186;-75
2020/12/19 12:17:55;;;;;;;0.68;0.68;;;11.60;99.90;;;;;;5075035;28;20171;-74
2020/12/19 12:20:21;;;;;;;0.20;0.20;;;11.60;99.90;;;;;;5057024;28;20284;-75
2020/12/19 12:22:46;;;;;;;0.35;0.35;;;11.60;99.90;;;;;;5074937;28;20225;-75
2020/12/19 12:25:13;;;;;;;2.85;0.30;;;11.70;99.90;;;;;;5074656;28;20194;-75
2020/12/19 12:27:39;;;;;;;1.00;0.90;;;11.70;99.90;;;;;;5074683;28;20202;-76
2020/12/19 12:30:05;;;;;;;0.43;0.43;;;11.80;99.90;;;;;;5074563;28;20242;-76
2020/12/19 12:32:31;;;;;;;1.85;1.75;;;11.90;99.90;;;;;;5056635;28;20167;-76
2020/12/19 12:34:56;;;;;;;0.40;0.40;;;11.80;99.90;;;;;;5074755;28;20186;-76
2020/12/19 12:37:22;;;;;;;2.25;1.17;;;11.70;99.90;;;;;;5074464;28;20190;-76
2020/12/19 12:39:47;;;;;;;0.20;0.20;;;11.80;99.90;;;;;;5074140;28;20618;-76
2020/12/19 12:42:18;;;;;;;0.47;0.47;;;11.70;99.90;;;;;;5074611;28;20253;-77
2020/12/19 12:44:44;;;;;;;0.50;0.50;;;11.70;99.90;;;;;;5056027;28;20590;-76
2020/12/19 12:47:09;;;;;;;0.43;0.43;;;11.80;99.90;;;;;;5055434;28;20210;-76
2020/12/19 12:49:35;;;;;;;0.80;0.80;;;12.00;99.90;;;;;;5074015;28;20192;-75
2020/12/19 12:52:00;;;;;;;0.50;0.50;;;12.00;99.90;;;;;;5074255;28;20174;-76
2020/12/19 12:54:26;;;;;;;0.30;0.30;;;12.10;99.90;;;;;;5056156;28;20247;-75